Logo AVAMET
Benvolgut visitant, si us plau, ingressa Recuperar contrasenya

Pego Ambra

Dades diàries. Acumulats / Últims 30 dies disponibles

Data Temperatura (°C) Humitat rel. (%) Pressió rel. (hPa) Vent (km/h) Precipitació
Mínima Mitjana Màxima Amplitud
tèrmica
Mínima Mitjana Màxima Mínima Mitjana Màxima Predom. Mitjana Ràfega
màxima
Total
(mm)
Índex-n
Mínima Mitjana Màxima Mínima Mitjana Màxima n
0 a 1
P0 max
mm 5'
Dades mensuals acumulades fins l'últim dia disponible
12/2019 9,7 11,6 14,6 13,7 13,0 16,4 21,8 12,1 20 78 96 1.002 1.015 1.025   3,9 46,7 229,6
Dades anuals acumulades fins l'últim dia disponible
2019 4,3 16,0 26,4 19,4 10,9 23,2 39,7 35,4 13 63 97 992 1.015 1.034   5,8 82,0 1.231,2
Últims 30 dies disponibles
09-12-2019 14,6     17,1     21,8 7,2 20 47 70 1.020 1.022 1.025 OSO 4,8 38,9 0,0
08-12-2019 11,3     14,9     18,4 7,1 47 67 80 1.019 1.021 1.023 ONO 4,0 46,7 0,0
07-12-2019 10,7     13,3     16,3 5,6 70 82 90 1.020 1.021 1.023 SO 1,6 19,3 0,0
06-12-2019 11,3     13,1     15,9 4,6 76 87 94 1.020 1.021 1.023 ONO 1,7 16,7 0,9
05-12-2019 11,2     12,9     15,6 4,4 74 87 94 1.007 1.014 1.020 SSO 2,0 22,5 16,5 0,13 1,50
04-12-2019 10,6     11,9     13,7 3,1 77 89 96 1.002 1.005 1.008 SO 6,6 45,0 46,6 0,52 5,80
03-12-2019 9,7     11,5     13,0 3,3 80 89 95 1.008 1.013 1.015 SSE 7,1 37,0 104,3 0,51 7,30
02-12-2019 11,9     13,1     14,4 2,5 68 87 95 1.009 1.012 1.016 SSO 4,8 33,8 61,3 0,42 3,90
01-12-2019 13,4     15,7     18,2 4,8 54 65 77 1.008 1.010 1.012 SO 2,3 19,3 0,0
30-11-2019 15,4     18,3     21,3 5,9 50 61 70 1.012 1.016 1.019 SSO 3,7 25,9 0,0
29-11-2019 16,1     19,2     21,9 5,8 49 55 63 1.014 1.016 1.019 O 9,5 40,7 0,0
28-11-2019 14,9     17,2     21,1 6,2 47 55 65 1.011 1.014 1.016 O 7,2 53,7 0,0
27-11-2019 16,8     18,4     21,5 4,7 38 52 68 1.007 1.009 1.012 O 8,3 53,7 0,0
26-11-2019 16,2     19,0     21,9 5,7 45 58 70 1.008 1.011 1.013 O 7,0 37,0 0,0
25-11-2019 13,5     17,5     19,9 6,4 52 59 66 1.010 1.012 1.013 O 8,6 43,4 0,0
24-11-2019 13,4     14,4     16,4 3,0 41 46 50 1.006 1.009 1.012 O 15,4 53,7 0,0
23-11-2019 13,1     15,4     17,4 4,3 40 49 72 992 997 1.006 O 16,7 62,9 0,0
22-11-2019 12,0     14,5     17,9 5,9 62 72 79 992 1.001 1.006 OSO 5,0 42,6 1,5
21-11-2019 9,7     13,4     16,2 6,5 60 70 84 1.006 1.007 1.009 S 1,7 14,8 0,0
20-11-2019 7,9     13,2     15,9 8,0 48 60 84 1.007 1.009 1.012 S 3,2 27,8 0,3
19-11-2019 7,9     11,6     15,9 8,0 36 48 60 1.013 1.014 1.016 OSO 5,5 27,8 0,0
18-11-2019 9,6     12,5     14,8 5,2 51 63 86 1.005 1.009 1.015 OSO 5,5 37,0 1,5
17-11-2019 10,5     13,5     17,2 6,7 39 48 79 1.008 1.010 1.013 O 11,6 55,5 0,9
16-11-2019 8,7     12,0     14,6 5,9 39 49 62 1.005 1.009 1.013 O 7,1 42,6 0,0
15-11-2019 10,3     12,4     14,7 4,4 42 50 58 999 1.002 1.005 O 9,3 50,0 0,0
14-11-2019 9,9     14,7     17,8 7,9 45 56 70 997 1.001 1.008 SO 8,8 56,3 0,0
13-11-2019 12,8     15,3     17,3 4,5 44 65 81 1.003 1.006 1.010 OSO 6,4 48,1 5,3
12-11-2019 11,8     14,8     18,8 7,0 35 43 59 1.007 1.009 1.011 O 7,5 40,7 0,0
11-11-2019 10,0     13,7     16,6 6,6 39 46 58 1.009 1.011 1.013 ONO 8,6 35,4 0,0
10-11-2019 11,9     14,1     16,0 4,1 39 49 63 1.008 1.010 1.012 ONO 13,5 51,8 0,3
Últims 13 mesos disponibles
11/2019 7,9 13,5 22,1 16,3 14,6 19,1 26,7 18,8 35 53 72 997 1.009 1.016 O 8,9 75,9 10,1
10/2019 12,5 17,7 21,6 20,9 16,4 24,3 30,9 18,4 36 66 87 1.007 1.014 1.020 SSO 3,9 55,5 101,6
09/2019 14,8 20,7 23,8 23,7 22,0 27,3 34,3 19,5 43 75 94 1.008 1.015 1.021 SSO 4,6 55,5 237,1
08/2019 18,9 23,0 26,4 26,8 26,6 31,4 39,3 20,4 45 69 82 1.008 1.013 1.017 SSO 5,1 51,8 181,3
07/2019 21,4 23,3 26,3 27,1 27,3 31,5 39,7 18,3 41 64 82 1.003 1.011 1.019 SSE 5,7 59,5 2,1
06/2019 16,2 19,2 24,1 23,6 22,2 28,7 36,6 20,4 36 60 82 1.006 1.013 1.019 S 5,8 50,0 0,0
05/2019 10,8 15,5 22,1 19,5 18,1 23,8 31,1 20,3 46 64 82 1.008 1.014 1.022 S 5,9 43,4 14,2
04/2019 9,8 12,7 15,3 15,9 13,8 19,5 28,5 18,7 32 66 94 998 1.011 1.023 SO 7,9 56,3 342,5
03/2019 7,8 11,7 19,0 15,4 13,1 19,4 27,6 19,8 33 56 94 1.008 1.021 1.028 S 5,5 53,7 108,5
02/2019 5,9 9,9 14,0 13,5 12,6 17,0 22,8 16,9 34 59 82 993 1.023 1.032 S 5,3 82,0 0,0
01/2019 4,3 9,8 14,8 12,8 10,9 16,1 20,6 16,3 33 53 80 1.001 1.017 1.029 SO 6,5 74,0 4,2
12/2018 8,6 11,8 15,8 14,9 12,7 18,6 23,9 15,3 42 63 89 1.007 1.023 1.029 SO 3,9 61,1 39,2
11/2018 10,4 13,4 16,6 15,7 14,4 18,3 22,3 11,9 40 66 93 999 1.013 1.021 OSO 5,7 66,6 155,1
Tots els anys disponibles
2018 4,2 16,1 27,4 19,2 7,8 22,9 37,1 32,9 29 63 94 991 1.014 1.033 S 5,5 87,0 790,1
2017 0,9 15,9 27,0 19,4 8,8 22,9 37,9 37,0 55 64 72 1.013 1.017 1.021 91,0 928,0
2016 5,8 16,1 28,1 19,6 12,2 23,0 41,1 35,3 55 63 78 1.012 1.016 1.025 95,0 726,4
2015 3,0 16,0 22,5 19,5 21,2 23,1 41,6 38,6 54 64 75 1.013 1.018 1.029 95,0 907,0
2014 0,9 14,2 26,0 19,1 9,4 24,0 39,1 38,2 31 62 98 993 1.015 1.032 86,0 347,1
2013 1,5 13,5 16,6 18,2 18,5 22,8 37,4 35,9 50 63 73 1.004 1.014 1.022 114,0 846,0
2012 -1,7 13,6 19,3 18,3 21,5 23,4 41,4 43,1 51 64 76 1.008 1.015 1.021 4,3 74,0 984,2
2011 -0,7 13,7 23,5 17,7 5,4 22,7 37,7 38,4 38 72 98 803 1.015 1.032 4,7 93,0 1.174,0
2010 -0,1 15,7 27,7 19,9 9,3 24,2 40,1 40,2 33 67 98 989 1.010 1.026 5,2 76,0 814,7
Temperatura (°C)
Humitat relativa (%)
Velocitat del vent i ràfega màxima (km/h)
Direcció del vent (°)
Pressió (hPa)
Precipitació (mm)
Nota sobre les dades: s'avisa a l'usuari de la provisionalitat i no oficialitat d'aquestes dades
Logo AVAMET blanc
Web allotjada a Sollutia
Llicència de Creative CommonsLa web d'AVAMET i els seus continguts estan subjectes a una llicència de
Reconeixement - No Comercial - Compartir igual
Últimes estacions: Aielo de Malferit - Centre (Soci), Faura (Inforatge), Benifairó de les Valls (Inforatge), Xàbia - Les Valls (Soci), Xàbia - Alt de la Granadella (Soci), Villena - Sierra de Salinas (Soci), Sueca - Centre (Inforatge) - - -